Aviation Digital Data Service (ADDS)

Output produced by METARs form (0633 UTC 08 July 2015)
found at http://aviationweather.gov/adds/metars/
 
KPNE 080540Z 0806/0906 22005KT P6SM BKN250 
     FM081000 26007KT P6SM BKN080 
     FM081600 25008G16KT P6SM BKN060 
     TEMPO 0820/0823 29012G26KT 3SM TSRA BKN030CB 
     FM082300 30004KT P6SM VCSH BKN050